Time;durP1;ratioP1;P1;durP2;ratioP2;P2;SDS_P1;SDS_P2;PMS_P1;PMS_P2;Temp;Humidity;BMP_temperature;BMP_pressure;BME280_temperature;BME280_humidity;BME280_pressure;Samples;Min_cycle;Max_cycle;Signal;HPM_P1;HPM_P2
2021/11/21 00:00:49;;;;;;;65.63;33.35;;;8.10;99.90;;;;;;5073883;28;20070;-74
2021/11/21 00:03:14;;;;;;;69.90;34.00;;;8.10;99.90;;;;;;5074689;28;20382;-74
2021/11/21 00:05:41;;;;;;;64.68;33.38;;;8.10;99.90;;;;;;5056951;28;20052;-74
2021/11/21 00:08:08;;;;;;;68.65;35.08;;;8.40;99.90;;;;;;5074716;28;20024;-74
2021/11/21 00:10:34;;;;;;;74.18;36.75;;;8.10;99.90;;;;;;5074666;28;20129;-74
2021/11/21 00:13:00;;;;;;;72.20;36.30;;;8.10;99.90;;;;;;5056743;28;20049;-75
2021/11/21 00:15:26;;;;;;;71.05;34.63;;;8.10;99.90;;;;;;5074329;28;20067;-76
2021/11/21 00:17:51;;;;;;;70.57;34.40;;;8.10;99.90;;;;;;5074782;28;20063;-74
2021/11/21 00:20:17;;;;;;;67.63;34.75;;;8.00;99.90;;;;;;5056235;28;20413;-76
2021/11/21 00:22:45;;;;;;;70.03;33.15;;;8.10;99.90;;;;;;5072940;28;20493;-75
2021/11/21 00:25:10;;;;;;;74.18;34.22;;;8.00;99.90;;;;;;5073537;28;20024;-75
2021/11/21 00:27:36;;;;;;;68.63;34.63;;;8.00;99.90;;;;;;5072899;28;20390;-75
2021/11/21 00:30:02;;;;;;;71.57;34.47;;;8.20;99.90;;;;;;5074584;28;20374;-74
2021/11/21 00:32:28;;;;;;;82.78;35.53;;;8.10;99.90;;;;;;5074568;28;20028;-75
2021/11/21 00:34:53;;;;;;;80.75;36.13;;;8.00;99.90;;;;;;5073194;28;20102;-74
2021/11/21 00:37:19;;;;;;;73.43;34.90;;;7.90;99.90;;;;;;5072770;28;20024;-75
2021/11/21 00:39:44;;;;;;;77.88;36.80;;;7.90;99.90;;;;;;5072548;28;20036;-74
2021/11/21 00:42:10;;;;;;;79.45;36.08;;;8.00;99.90;;;;;;5073277;28;20078;-74
2021/11/21 00:44:36;;;;;;;80.85;37.47;;;7.90;99.90;;;;;;5055786;28;20056;-74
2021/11/21 00:47:02;;;;;;;92.13;38.08;;;8.00;99.90;;;;;;5073987;28;20108;-75
2021/11/21 00:49:27;;;;;;;82.15;38.17;;;7.90;99.90;;;;;;5072840;28;20516;-75
2021/11/21 00:51:53;;;;;;;97.95;39.47;;;7.90;99.90;;;;;;5056321;28;20078;-75
2021/11/21 00:54:27;;;;;;;102.70;40.63;;;7.80;99.90;;;;;;5072676;28;20035;-74
2021/11/21 00:56:54;;;;;;;88.30;38.42;;;7.80;99.90;;;;;;5074207;28;20502;-76
2021/11/21 00:59:20;;;;;;;92.82;41.33;;;7.70;99.90;;;;;;5055662;28;20064;-76
2021/11/21 01:01:49;;;;;;;97.90;40.30;;;7.70;99.90;;;;;;5055938;28;20025;-74
2021/11/21 01:04:15;;;;;;;95.30;40.95;;;7.70;99.90;;;;;;5073504;28;20132;-74
2021/11/21 01:06:41;;;;;;;102.10;42.35;;;7.60;99.90;;;;;;5074100;28;20475;-75
2021/11/21 01:09:07;;;;;;;91.93;41.20;;;7.70;99.90;;;;;;5055759;28;20028;-74
2021/11/21 01:11:32;;;;;;;98.68;40.70;;;7.70;99.90;;;;;;5073074;28;20378;-75
2021/11/21 01:13:58;;;;;;;102.20;40.75;;;7.70;99.90;;;;;;5072570;28;20489;-75
2021/11/21 01:16:24;;;;;;;105.80;42.45;;;7.60;99.90;;;;;;5073961;28;20021;-74
2021/11/21 01:18:49;;;;;;;106.93;43.13;;;7.70;99.90;;;;;;5073680;28;20035;-76
2021/11/21 01:21:15;;;;;;;107.90;43.83;;;7.60;99.90;;;;;;5072041;28;20486;-75
2021/11/21 01:23:40;;;;;;;109.47;42.53;;;7.60;99.90;;;;;;5072193;28;20096;-75
2021/11/21 01:26:06;;;;;;;100.55;42.15;;;7.60;99.90;;;;;;5072422;28;20044;-74
2021/11/21 01:28:32;;;;;;;106.45;43.15;;;7.70;99.90;;;;;;5073861;28;20046;-72
2021/11/21 01:30:58;;;;;;;106.18;41.45;;;7.60;99.90;;;;;;5072747;28;20373;-74
2021/11/21 01:33:23;;;;;;;101.22;41.42;;;7.60;99.90;;;;;;5073849;28;20032;-75
2021/11/21 01:35:49;;;;;;;105.15;43.42;;;7.60;99.90;;;;;;5055299;28;20119;-74
2021/11/21 01:38:14;;;;;;;99.15;42.63;;;7.60;99.90;;;;;;5072349;28;20037;-75
2021/11/21 01:40:40;;;;;;;98.15;39.47;;;7.70;99.90;;;;;;5072236;28;20393;-75
2021/11/21 01:43:07;;;;;;;96.20;38.70;;;7.70;99.90;;;;;;5072301;28;20119;-75
2021/11/21 01:45:33;;;;;;;96.13;40.50;;;7.70;99.90;;;;;;5073452;28;20013;-75
2021/11/21 01:48:00;;;;;;;98.25;41.35;;;7.70;99.90;;;;;;5073679;28;20021;-75
2021/11/21 01:50:30;;;;;;;93.25;40.38;;;7.70;99.90;;;;;;5055165;28;20078;-73
2021/11/21 01:52:56;;;;;;;93.55;40.28;;;7.70;99.90;;;;;;5071813;28;20020;-74
2021/11/21 01:55:23;;;;;;;99.05;41.03;;;7.70;99.90;;;;;;5073620;28;20031;-75
2021/11/21 01:57:48;;;;;;;98.47;39.30;;;7.70;99.90;;;;;;5056070;28;20455;-75
2021/11/21 02:00:15;;;;;;;102.55;41.85;;;7.70;99.90;;;;;;5072942;28;20137;-73
2021/11/21 02:02:42;;;;;;;95.47;41.17;;;7.60;99.90;;;;;;5038446;28;20025;-75
2021/11/21 02:05:09;;;;;;;97.40;40.80;;;7.70;99.90;;;;;;5073558;28;20025;-75
2021/11/21 02:07:36;;;;;;;95.45;41.05;;;7.70;99.90;;;;;;5074058;28;20043;-74
2021/11/21 02:10:01;;;;;;;102.18;41.35;;;7.60;99.90;;;;;;5058804;28;20020;-74
2021/11/21 02:12:27;;;;;;;103.75;43.78;;;7.60;99.90;;;;;;5076333;28;20031;-74
2021/11/21 02:14:53;;;;;;;106.00;41.50;;;7.60;99.90;;;;;;5058949;28;20028;-74
2021/11/21 02:17:23;;;;;;;105.25;41.97;;;7.60;99.90;;;;;;5076142;28;20036;-74
2021/11/21 02:19:48;;;;;;;108.50;42.88;;;7.60;99.90;;;;;;5075186;28;20039;-75
2021/11/21 02:22:14;;;;;;;98.60;41.60;;;7.60;99.90;;;;;;5076455;28;20036;-74
2021/11/21 02:24:39;;;;;;;109.95;42.53;;;7.60;99.90;;;;;;5076694;28;20028;-74
2021/11/21 02:27:05;;;;;;;115.35;43.97;;;7.60;99.90;;;;;;5075459;28;20031;-74
2021/11/21 02:29:30;;;;;;;109.97;45.15;;;7.50;99.90;;;;;;5076359;28;20048;-73
2021/11/21 02:31:56;;;;;;;112.63;43.15;;;7.50;99.90;;;;;;5076790;28;20064;-75
2021/11/21 02:34:22;;;;;;;107.40;43.17;;;7.60;99.90;;;;;;5076817;28;20373;-73
2021/11/21 02:36:47;;;;;;;107.47;42.88;;;7.60;99.90;;;;;;5076734;28;20032;-73
2021/11/21 02:39:13;;;;;;;113.40;44.22;;;7.50;99.90;;;;;;5074912;28;20025;-75
2021/11/21 02:41:40;;;;;;;110.05;43.88;;;7.50;99.90;;;;;;5058688;28;20051;-73
2021/11/21 02:44:06;;;;;;;110.93;44.15;;;7.50;99.90;;;;;;5076317;28;20028;-73
2021/11/21 02:46:34;;;;;;;115.30;45.38;;;7.50;99.90;;;;;;5076313;28;20044;-73
2021/11/21 02:49:00;;;;;;;110.00;44.35;;;7.50;99.90;;;;;;5076278;28;20025;-73
2021/11/21 02:51:26;;;;;;;123.72;47.97;;;7.50;99.90;;;;;;5075948;28;20033;-73
2021/11/21 02:53:51;;;;;;;118.45;46.05;;;7.50;99.90;;;;;;5076461;28;20028;-72
2021/11/21 02:56:18;;;;;;;123.40;46.67;;;7.50;99.90;;;;;;5074614;28;20470;-72
2021/11/21 02:58:46;;;;;;;114.40;45.08;;;7.60;99.90;;;;;;5074574;28;20032;-73
2021/11/21 03:01:18;;;;;;;125.72;48.70;;;7.50;99.90;;;;;;5074457;28;20029;-73
2021/11/21 03:03:44;;;;;;;120.38;46.50;;;;;;;;;;5075818;28;20037;-75
2021/11/21 03:06:11;;;;;;;124.93;49.45;;;7.60;99.90;;;;;;5075941;28;20028;-75
2021/11/21 03:08:37;;;;;;;115.10;45.65;;;7.50;99.90;;;;;;5076186;28;20397;-75
2021/11/21 03:11:28;;;;;;;120.25;48.42;;;7.50;99.90;;;;;;5076154;28;20021;-74
2021/11/21 03:13:55;;;;;;;122.32;46.55;;;7.50;99.90;;;;;;5075442;28;20103;-74
2021/11/21 03:16:21;;;;;;;123.70;46.70;;;7.50;99.90;;;;;;5074603;28;20492;-73
2021/11/21 03:18:46;;;;;;;127.03;48.90;;;7.50;99.90;;;;;;5075882;28;20036;-74
2021/11/21 03:21:12;;;;;;;127.63;48.47;;;7.50;99.90;;;;;;5075640;28;20108;-74
2021/11/21 03:23:39;;;;;;;120.70;48.63;;;7.50;99.90;;;;;;5074756;28;20021;-73
2021/11/21 03:26:04;;;;;;;119.30;48.22;;;7.50;99.90;;;;;;5075626;28;20027;-73
2021/11/21 03:28:30;;;;;;;118.85;47.65;;;7.50;99.90;;;;;;5075822;28;20095;-75
2021/11/21 03:30:56;;;;;;;118.53;49.00;;;7.50;99.90;;;;;;5074000;28;20132;-74
2021/11/21 03:33:21;;;;;;;124.72;48.60;;;7.50;99.90;;;;;;5074788;28;20029;-74
2021/11/21 03:35:47;;;;;;;119.72;48.90;;;7.50;99.90;;;;;;5075398;28;20477;-74
2021/11/21 03:38:13;;;;;;;116.80;48.70;;;7.60;99.90;;;;;;5075899;28;20362;-75
2021/11/21 03:40:38;;;;;;;118.18;48.53;;;7.60;99.90;;;;;;5073796;28;20024;-74
2021/11/21 03:43:04;;;;;;;110.57;46.42;;;7.50;99.90;;;;;;5073827;28;20020;-74
2021/11/21 03:45:31;;;;;;;108.75;45.25;;;7.60;99.90;;;;;;5075436;28;20025;-74
2021/11/21 03:47:56;;;;;;;113.50;44.88;;;7.60;99.90;;;;;;5073581;28;20023;-74
2021/11/21 03:50:22;;;;;;;111.47;45.78;;;7.50;99.90;;;;;;5074206;28;20100;-74
2021/11/21 03:52:48;;;;;;;124.13;48.08;;;7.50;99.90;;;;;;5073873;28;20035;-74
2021/11/21 03:55:16;;;;;;;113.15;44.88;;;7.60;99.90;;;;;;5057379;28;20032;-74
2021/11/21 03:57:43;;;;;;;115.78;46.33;;;7.50;99.90;;;;;;5056749;28;20058;-74
2021/11/21 04:00:12;;;;;;;114.20;46.05;;;7.50;99.90;;;;;;5074118;28;20379;-74
2021/11/21 04:02:39;;;;;;;113.55;47.10;;;7.60;99.90;;;;;;5074834;28;20012;-74
2021/11/21 04:05:04;;;;;;;124.60;48.65;;;7.50;99.90;;;;;;5073265;28;20046;-75
2021/11/21 04:07:32;;;;;;;127.25;48.55;;;7.50;99.90;;;;;;5073571;28;20521;-74
2021/11/21 04:09:58;;;;;;;130.13;48.88;;;7.50;99.90;;;;;;5073508;28;20050;-74
2021/11/21 04:12:24;;;;;;;122.30;47.42;;;7.50;99.90;;;;;;5074910;28;20027;-74
2021/11/21 04:14:50;;;;;;;129.88;49.58;;;7.50;99.90;;;;;;5073056;28;20025;-74
2021/11/21 04:17:15;;;;;;;128.85;49.35;;;7.50;99.90;;;;;;5073022;28;20021;-75
2021/11/21 04:19:41;;;;;;;123.75;47.22;;;7.50;99.90;;;;;;5073832;28;20070;-75
2021/11/21 04:22:07;;;;;;;130.63;50.22;;;7.50;99.90;;;;;;5072874;28;20056;-74
2021/11/21 04:24:33;;;;;;;131.63;50.90;;;7.50;99.90;;;;;;5072877;28;20016;-72
2021/11/21 04:26:59;;;;;;;132.80;52.13;;;7.50;99.90;;;;;;5056159;28;20101;-74
2021/11/21 04:29:26;;;;;;;135.02;50.67;;;7.50;99.90;;;;;;5073144;28;20071;-74
2021/11/21 04:31:54;;;;;;;134.75;51.17;;;7.50;99.90;;;;;;5074595;28;20025;-72
2021/11/21 04:34:19;;;;;;;128.98;49.80;;;7.50;99.90;;;;;;5073383;28;20032;-75
2021/11/21 04:36:45;;;;;;;123.18;47.40;;;7.50;99.90;;;;;;5056341;28;20028;-73
2021/11/21 04:39:10;;;;;;;125.68;48.28;;;7.50;99.90;;;;;;5074176;28;20028;-72
2021/11/21 04:41:36;;;;;;;115.88;46.85;;;7.50;99.90;;;;;;5056307;28;20146;-74
2021/11/21 04:44:02;;;;;;;118.07;47.20;;;7.50;99.90;;;;;;5074144;28;20377;-75
2021/11/21 04:46:29;;;;;;;131.05;48.67;;;7.50;99.90;;;;;;5073158;28;20070;-74
2021/11/21 04:48:54;;;;;;;128.82;48.88;;;7.50;99.90;;;;;;5072504;28;20031;-74
2021/11/21 04:51:20;;;;;;;130.48;47.50;;;7.50;99.90;;;;;;5072670;28;20024;-75
2021/11/21 04:53:46;;;;;;;127.95;48.63;;;7.40;99.90;;;;;;5074465;28;20024;-74
2021/11/21 04:56:12;;;;;;;131.73;49.83;;;7.50;99.90;;;;;;5074240;28;20028;-73
2021/11/21 04:58:37;;;;;;;128.32;48.63;;;7.40;99.90;;;;;;5039201;28;20028;-75
2021/11/21 05:01:03;;;;;;;128.68;47.03;;;7.50;99.90;;;;;;5055926;28;20028;-75
2021/11/21 05:03:29;;;;;;;120.47;46.45;;;7.40;99.90;;;;;;5073582;28;20037;-74
2021/11/21 05:05:55;;;;;;;127.15;47.97;;;7.50;99.90;;;;;;5073157;28;20035;-75
2021/11/21 05:08:21;;;;;;;125.68;49.38;;;7.40;99.90;;;;;;5073793;28;20020;-75
2021/11/21 05:10:47;;;;;;;133.07;49.17;;;7.50;99.90;;;;;;5074355;28;20031;-75
2021/11/21 05:13:12;;;;;;;140.65;51.72;;;7.50;99.90;;;;;;5055859;28;20373;-75
2021/11/21 05:15:38;;;;;;;130.32;49.85;;;7.50;99.90;;;;;;5055541;28;20123;-75
2021/11/21 05:18:04;;;;;;;125.95;48.08;;;7.50;99.90;;;;;;5074081;28;20025;-75
2021/11/21 05:20:29;;;;;;;129.27;48.53;;;7.50;99.90;;;;;;5055974;28;20458;-75
2021/11/21 05:22:55;;;;;;;125.40;47.38;;;7.50;99.90;;;;;;5073415;28;20485;-76
2021/11/21 05:25:21;;;;;;;125.75;48.55;;;7.50;99.90;;;;;;5056343;28;20070;-75
2021/11/21 05:27:47;;;;;;;109.65;43.95;;;7.50;99.90;;;;;;5055931;28;20025;-75
2021/11/21 05:30:14;;;;;;;114.15;44.53;;;7.50;99.90;;;;;;5072450;28;20020;-75
2021/11/21 05:32:41;;;;;;;113.15;43.20;;;7.50;99.90;;;;;;5073589;28;20105;-75
2021/11/21 05:35:08;;;;;;;109.25;42.45;;;7.50;99.90;;;;;;5055285;28;20474;-75
2021/11/21 05:37:35;;;;;;;104.70;42.40;;;7.50;99.90;;;;;;5073505;28;20028;-74
2021/11/21 05:40:02;;;;;;;98.93;40.80;;;7.50;99.90;;;;;;5072614;28;20025;-75
2021/11/21 05:42:29;;;;;;;90.57;40.05;;;7.60;99.90;;;;;;5075425;28;20039;-74
2021/11/21 05:44:54;;;;;;;100.50;41.50;;;7.50;99.90;;;;;;5077536;28;20050;-74
2021/11/21 05:47:20;;;;;;;103.18;41.42;;;7.50;99.90;;;;;;5075922;28;20020;-75
2021/11/21 05:49:45;;;;;;;94.50;40.47;;;7.50;99.90;;;;;;5042596;28;20107;-75
2021/11/21 05:52:11;;;;;;;102.88;42.90;;;7.50;99.90;;;;;;5077371;28;20055;-76
2021/11/21 05:54:36;;;;;;;102.70;42.67;;;7.50;99.90;;;;;;5076992;28;20035;-74
2021/11/21 05:57:02;;;;;;;106.60;44.50;;;7.50;99.90;;;;;;5076098;28;20032;-76
2021/11/21 05:59:28;;;;;;;104.65;45.65;;;7.50;99.90;;;;;;5076051;28;20040;-73
2021/11/21 06:01:54;;;;;;;104.88;44.83;;;7.60;99.90;;;;;;5076135;28;20115;-75
2021/11/21 06:04:20;;;;;;;114.25;45.60;;;7.50;99.90;;;;;;5058865;28;20149;-73
2021/11/21 06:06:45;;;;;;;112.35;45.33;;;7.60;99.90;;;;;;5075906;28;20031;-76
2021/11/21 06:09:11;;;;;;;111.97;46.25;;;7.60;99.90;;;;;;5075575;28;20025;-73
2021/11/21 06:11:36;;;;;;;118.93;48.60;;;7.60;99.90;;;;;;5075822;28;20102;-72
2021/11/21 06:14:02;;;;;;;126.47;49.13;;;7.50;99.90;;;;;;5077226;28;20378;-73
2021/11/21 06:16:28;;;;;;;123.85;47.53;;;7.60;99.90;;;;;;5077139;28;20020;-73
2021/11/21 06:18:53;;;;;;;129.80;48.55;;;7.50;99.90;;;;;;5075324;28;20117;-75
2021/11/21 06:21:19;;;;;;;136.52;50.10;;;7.50;99.90;;;;;;5076680;28;20025;-72
2021/11/21 06:23:44;;;;;;;136.25;52.67;;;7.50;99.90;;;;;;5075587;28;20031;-74
2021/11/21 06:26:12;;;;;;;132.15;54.08;;;7.60;99.90;;;;;;5075501;28;20056;-75
2021/11/21 06:28:37;;;;;;;143.93;52.97;;;7.60;99.90;;;;;;5075765;28;20023;-74
2021/11/21 06:31:03;;;;;;;144.57;54.15;;;7.60;99.90;;;;;;5075082;28;20024;-74
2021/11/21 06:33:29;;;;;;;145.05;53.65;;;7.60;99.90;;;;;;5058378;28;20437;-74
2021/11/21 06:35:54;;;;;;;138.88;53.47;;;7.60;99.90;;;;;;5075590;28;20063;-75
2021/11/21 06:38:21;;;;;;;143.55;54.60;;;7.60;99.90;;;;;;5042639;28;20036;-75
2021/11/21 06:40:46;;;;;;;139.82;52.63;;;7.60;99.90;;;;;;5075251;28;20031;-75
2021/11/21 06:43:12;;;;;;;151.98;54.17;;;7.60;99.90;;;;;;5075275;28;20024;-74
2021/11/21 06:45:38;;;;;;;143.85;53.55;;;7.60;99.90;;;;;;5075189;28;20474;-75
2021/11/21 06:48:10;;;;;;;138.98;51.40;;;7.60;99.90;;;;;;5074811;28;20021;-74
2021/11/21 06:50:36;;;;;;;146.10;53.13;;;7.60;99.90;;;;;;5076573;28;20039;-74
2021/11/21 06:53:01;;;;;;;140.60;53.25;;;7.60;99.90;;;;;;5076043;28;20401;-74
2021/11/21 06:55:27;;;;;;;141.93;51.53;;;7.60;99.90;;;;;;5075493;28;20415;-74
2021/11/21 06:57:52;;;;;;;137.75;52.47;;;7.60;99.90;;;;;;5074640;28;20105;-74
2021/11/21 07:00:19;;;;;;;155.68;55.53;;;7.60;99.90;;;;;;5074500;28;20394;-74
2021/11/21 07:02:45;;;;;;;147.07;54.40;;;7.60;99.90;;;;;;5076113;28;20024;-74
2021/11/21 07:05:11;;;;;;;148.02;53.50;;;7.70;99.90;;;;;;5057802;28;20024;-74
2021/11/21 07:07:36;;;;;;;152.88;55.17;;;7.60;99.90;;;;;;5074744;28;20427;-74
2021/11/21 07:10:05;;;;;;;153.13;54.25;;;7.60;99.90;;;;;;5076240;28;20404;-74
2021/11/21 07:12:31;;;;;;;150.05;53.28;;;7.60;99.90;;;;;;5074404;28;20090;-74
2021/11/21 07:14:57;;;;;;;165.85;56.95;;;7.60;99.90;;;;;;5074683;28;20453;-75
2021/11/21 07:17:23;;;;;;;173.30;55.45;;;7.60;99.90;;;;;;5074655;28;20035;-75
2021/11/21 07:19:48;;;;;;;169.88;57.22;;;7.60;99.90;;;;;;5074542;28;20048;-74
2021/11/21 07:22:14;;;;;;;165.30;54.40;;;7.60;99.90;;;;;;5057784;28;20025;-74
2021/11/21 07:24:39;;;;;;;175.95;56.35;;;7.60;99.90;;;;;;5074699;28;20020;-75
2021/11/21 07:27:05;;;;;;;173.60;56.10;;;7.60;99.90;;;;;;5074160;28;20020;-75
2021/11/21 07:29:31;;;;;;;173.55;54.45;;;7.60;99.90;;;;;;5074864;28;20503;-74
2021/11/21 07:31:59;;;;;;;166.35;53.28;;;7.60;99.90;;;;;;5057262;28;20020;-74
2021/11/21 07:34:25;;;;;;;171.20;54.92;;;7.60;99.90;;;;;;5057307;28;20558;-75
2021/11/21 07:36:51;;;;;;;181.57;57.47;;;7.60;99.90;;;;;;5074258;28;20153;-74
2021/11/21 07:39:16;;;;;;;163.00;53.30;;;7.60;99.90;;;;;;5074477;28;20377;-75
2021/11/21 07:41:42;;;;;;;175.68;55.45;;;7.60;99.90;;;;;;5057634;28;20024;-73
2021/11/21 07:44:09;;;;;;;159.90;53.15;;;7.60;99.90;;;;;;5057094;28;20542;-73
2021/11/21 07:46:35;;;;;;;176.15;54.90;;;7.60;99.90;;;;;;5074039;28;20074;-73
2021/11/21 07:49:00;;;;;;;160.32;52.65;;;7.60;99.90;;;;;;5073609;28;20052;-74
2021/11/21 07:51:26;;;;;;;164.10;51.13;;;7.60;99.90;;;;;;5075369;28;20056;-73
2021/11/21 07:53:51;;;;;;;159.50;51.72;;;7.60;99.90;;;;;;5074787;28;20028;-76
2021/11/21 07:56:18;;;;;;;156.30;51.05;;;7.70;99.90;;;;;;5075256;28;20370;-74
2021/11/21 07:58:44;;;;;;;163.23;52.35;;;7.70;99.90;;;;;;5075219;28;20063;-72
2021/11/21 08:01:09;;;;;;;149.95;48.85;;;7.70;99.90;;;;;;5073389;28;20060;-75
2021/11/21 08:03:35;;;;;;;149.57;49.67;;;7.70;99.90;;;;;;5073193;28;20074;-76
2021/11/21 08:06:01;;;;;;;139.07;47.53;;;7.70;99.90;;;;;;5056606;28;20032;-74
2021/11/21 08:08:26;;;;;;;125.00;45.80;;;7.80;99.90;;;;;;5073218;28;20390;-74
2021/11/21 08:10:52;;;;;;;116.78;43.75;;;7.80;99.90;;;;;;5073229;28;20020;-74
2021/11/21 08:13:18;;;;;;;118.65;42.25;;;7.80;99.90;;;;;;5073294;28;20039;-74
2021/11/21 08:15:46;;;;;;;116.53;41.40;;;7.80;99.90;;;;;;5074047;28;20024;-74
2021/11/21 08:18:13;;;;;;;116.47;42.33;;;7.80;99.90;;;;;;5074581;28;20031;-74
2021/11/21 08:20:39;;;;;;;101.95;39.20;;;7.80;99.90;;;;;;5072927;28;20038;-74
2021/11/21 08:23:04;;;;;;;104.35;39.75;;;7.90;99.90;;;;;;5074804;28;20138;-73
2021/11/21 08:25:30;;;;;;;102.18;39.30;;;7.90;99.90;;;;;;5039725;28;20382;-74
2021/11/21 08:27:55;;;;;;;100.22;39.15;;;7.90;99.90;;;;;;5074623;28;20501;-74
2021/11/21 08:30:22;;;;;;;94.25;37.28;;;7.90;99.90;;;;;;5073670;28;20029;-74
2021/11/21 08:32:48;;;;;;;100.32;39.28;;;7.90;99.90;;;;;;5074301;28;20519;-75
2021/11/21 08:35:14;;;;;;;100.95;40.05;;;7.90;99.90;;;;;;5072762;28;20032;-74
2021/11/21 08:37:40;;;;;;;95.15;37.03;;;7.90;99.90;;;;;;5072700;28;20028;-74
2021/11/21 08:40:06;;;;;;;94.07;36.47;;;7.90;99.90;;;;;;5074119;28;20025;-74
2021/11/21 08:42:34;;;;;;;91.72;36.42;;;8.00;99.90;;;;;;5055944;28;20020;-74
2021/11/21 08:45:00;;;;;;;96.10;37.35;;;8.00;99.90;;;;;;5074398;28;20158;-74
2021/11/21 08:47:25;;;;;;;87.65;34.60;;;8.00;99.90;;;;;;5072912;28;20031;-73
2021/11/21 08:49:51;;;;;;;82.60;34.15;;;8.10;99.90;;;;;;5072874;28;20386;-74
2021/11/21 08:52:17;;;;;;;83.00;34.08;;;8.10;99.90;;;;;;5074337;28;20469;-74
2021/11/21 08:54:42;;;;;;;79.60;33.42;;;8.10;99.90;;;;;;5073751;28;20082;-74
2021/11/21 08:57:08;;;;;;;72.93;31.90;;;8.20;99.90;;;;;;5074223;28;20028;-74
2021/11/21 08:59:34;;;;;;;73.35;31.92;;;8.10;99.90;;;;;;5072996;28;20025;-74
2021/11/21 09:02:00;;;;;;;70.70;33.38;;;8.20;99.90;;;;;;5056453;28;20024;-74
2021/11/21 09:04:26;;;;;;;67.45;31.58;;;8.20;99.90;;;;;;5068930;28;20508;-74
2021/11/21 09:06:52;;;;;;;73.55;31.52;;;8.20;99.90;;;;;;5069072;28;20028;-74
2021/11/21 09:09:17;;;;;;;67.50;31.15;;;8.30;99.90;;;;;;5036144;28;20082;-74
2021/11/21 09:11:43;;;;;;;69.13;30.35;;;8.30;99.90;;;;;;5036055;28;20029;-74
2021/11/21 09:14:09;;;;;;;64.88;30.25;;;8.30;99.90;;;;;;5036031;28;20107;-74
2021/11/21 09:16:35;;;;;;;61.58;29.35;;;8.30;99.90;;;;;;5053829;28;20028;-74
2021/11/21 09:19:00;;;;;;;63.90;30.10;;;8.30;99.90;;;;;;5035634;28;20025;-74
2021/11/21 09:21:26;;;;;;;64.63;30.42;;;8.30;99.90;;;;;;5053604;28;20065;-74
2021/11/21 09:23:52;;;;;;;60.78;28.42;;;8.40;99.90;;;;;;5053994;28;20049;-75
2021/11/21 09:26:18;;;;;;;58.90;27.52;;;8.40;99.90;;;;;;5036369;28;20025;-75
2021/11/21 09:28:43;;;;;;;58.25;27.58;;;8.40;99.90;;;;;;5035869;28;20529;-76
2021/11/21 09:31:09;;;;;;;61.00;27.50;;;8.40;99.90;;;;;;5053643;28;20374;-75
2021/11/21 09:33:35;;;;;;;60.72;28.25;;;8.40;99.90;;;;;;5068979;28;20029;-74
2021/11/21 09:36:01;;;;;;;58.28;26.65;;;8.40;99.90;;;;;;5053933;28;20037;-75
2021/11/21 09:38:27;;;;;;;56.38;27.42;;;8.50;99.90;;;;;;5068745;28;20470;-75
2021/11/21 09:40:54;;;;;;;57.53;27.92;;;8.60;99.90;;;;;;5052126;28;20044;-75
2021/11/21 09:43:21;;;;;;;53.33;25.52;;;8.50;99.90;;;;;;5052061;28;20423;-74
2021/11/21 09:45:47;;;;;;;46.47;24.10;;;8.60;99.90;;;;;;5069167;28;20027;-74
2021/11/21 09:48:13;;;;;;;49.80;23.90;;;8.60;99.90;;;;;;5053580;28;20017;-75
2021/11/21 09:50:40;;;;;;;46.78;23.80;;;;;;;;;;5052226;28;20029;-74
2021/11/21 09:53:09;;;;;;;47.17;23.13;;;8.80;99.90;;;;;;5053381;28;20033;-75
2021/11/21 09:55:35;;;;;;;43.58;22.13;;;8.90;99.90;;;;;;5053111;28;20040;-75
2021/11/21 09:58:01;;;;;;;43.95;21.73;;;9.00;99.90;;;;;;5053041;28;20432;-75
2021/11/21 10:00:28;;;;;;;41.72;22.15;;;9.10;99.90;;;;;;5052058;28;20107;-75
2021/11/21 10:03:02;;;;;;;45.08;21.42;;;9.10;99.90;;;;;;5057092;28;20414;-74
2021/11/21 10:05:32;;;;;;;38.13;20.15;;;9.20;99.90;;;;;;5073525;28;20024;-75
2021/11/21 10:08:05;;;;;;;34.42;18.23;;;9.30;99.90;;;;;;5073241;28;20017;-75
2021/11/21 10:10:38;;;;;;;33.03;17.63;;;9.30;99.90;;;;;;5055400;28;20531;-75
2021/11/21 10:13:20;;;;;;;36.85;18.75;;;9.20;99.90;;;;;;5073185;28;20020;-75
2021/11/21 10:15:46;;;;;;;28.63;16.08;;;9.30;99.90;;;;;;5072112;28;20105;-76
2021/11/21 10:18:12;;;;;;;35.78;17.35;;;9.20;99.90;;;;;;5038471;28;20025;-75
2021/11/21 10:20:39;;;;;;;32.38;17.02;;;9.20;99.90;;;;;;5072285;28;20033;-75
2021/11/21 10:23:07;;;;;;;31.38;16.88;;;9.10;99.90;;;;;;5054916;28;20136;-75
2021/11/21 10:28:32;;;;;;;34.38;17.42;;;9.10;99.90;;;;;;5112308;27;20288;-69
2021/11/21 10:31:17;;;;;;;29.58;15.80;;;9.20;99.90;;;;;;5111918;28;20055;-69
2021/11/21 10:33:58;;;;;;;33.47;15.23;;;9.20;99.90;;;;;;5111902;28;20028;-68
2021/11/21 10:36:27;;;;;;;29.95;15.65;;;9.20;99.90;;;;;;5111811;28;20028;-68
2021/11/21 10:38:56;;;;;;;32.13;15.85;;;9.20;99.90;;;;;;5111525;28;20020;-69
2021/11/21 10:41:27;;;;;;;32.83;17.05;;;9.20;99.90;;;;;;5111720;28;20051;-68
2021/11/21 10:46:40;;;;;;;33.53;16.00;;;9.30;99.90;;;;;;5112251;27;20350;-69
2021/11/21 10:49:35;;;;;;;33.28;16.55;;;9.40;99.90;;;;;;5111999;28;20034;-69
2021/11/21 10:54:49;;;;;;;35.40;16.25;;;9.40;99.90;;;;;;5112258;27;20294;-69
2021/11/21 10:57:19;;;;;;;35.80;16.45;;;9.50;99.90;;;;;;5110690;28;20020;-68
2021/11/21 10:59:54;;;;;;;32.38;15.90;;;9.50;99.90;;;;;;5111639;28;20023;-69
2021/11/21 11:02:25;;;;;;;32.50;15.40;;;9.50;99.90;;;;;;5111862;28;20043;-69
2021/11/21 11:05:15;;;;;;;30.27;14.07;;;9.40;99.90;;;;;;5111844;28;20054;-68
2021/11/21 11:07:54;;;;;;;32.20;15.18;;;9.50;99.90;;;;;;5144422;27;20088;-69
2021/11/21 11:13:03;;;;;;;36.03;16.05;;;9.40;99.90;;;;;;5091855;28;20528;-69
2021/11/21 11:15:31;;;;;;;35.70;14.30;;;9.50;99.90;;;;;;5090213;28;20082;-68
2021/11/21 11:17:58;;;;;;;30.58;15.15;;;9.60;99.90;;;;;;5091335;28;20020;-69
2021/11/21 11:20:26;;;;;;;28.25;13.20;;;9.60;99.90;;;;;;5091560;28;20025;-69
2021/11/21 11:22:52;;;;;;;29.85;12.68;;;9.60;99.90;;;;;;5072851;28;20077;-69
2021/11/21 11:25:30;;;;;;;28.20;12.82;;;9.80;99.90;;;;;;5089650;28;20069;-67
2021/11/21 11:28:20;;;;;;;30.05;12.75;;;9.90;99.90;;;;;;5090281;28;20024;-67
2021/11/21 11:30:47;;;;;;;26.65;12.15;;;9.90;99.90;;;;;;5090650;28;20028;-69
2021/11/21 11:33:17;;;;;;;29.13;12.90;;;9.90;99.90;;;;;;5091306;28;20108;-69
2021/11/21 11:35:48;;;;;;;25.10;12.00;;;9.80;99.90;;;;;;5090952;28;20089;-67
2021/11/21 11:38:23;;;;;;;27.13;12.25;;;9.80;99.90;;;;;;5089483;28;20016;-69
2021/11/21 11:40:59;;;;;;;27.63;13.48;;;9.80;99.90;;;;;;5090889;28;20031;-69
2021/11/21 11:43:31;;;;;;;27.45;13.05;;;9.80;99.90;;;;;;5089671;28;20037;-69
2021/11/21 11:46:01;;;;;;;32.40;12.60;;;9.90;99.90;;;;;;5090800;28;20020;-69
2021/11/21 11:48:40;;;;;;;26.38;12.82;;;9.90;99.90;;;;;;5091041;28;20024;-69
2021/11/21 11:51:10;;;;;;;28.25;11.68;;;9.90;99.90;;;;;;5090897;28;20024;-69
2021/11/21 11:53:44;;;;;;;24.00;10.73;;;9.90;99.90;;;;;;5090941;28;20020;-69
2021/11/21 11:56:16;;;;;;;25.67;11.27;;;9.90;99.90;;;;;;5090593;28;20070;-69
2021/11/21 11:58:56;;;;;;;22.33;10.75;;;10.00;99.90;;;;;;5089397;28;20107;-69
2021/11/21 12:07:00;;;;;;;22.52;9.63;;;10.10;99.90;;;;;;5132827;27;20375;-69
2021/11/21 12:09:29;;;;;;;25.15;10.13;;;10.10;99.90;;;;;;5132402;28;20364;-69
2021/11/21 12:14:38;;;;;;;21.38;9.50;;;10.10;99.90;;;;;;5112217;27;20129;-69
2021/11/21 12:17:08;;;;;;;22.52;9.15;;;10.00;99.90;;;;;;5111678;28;20038;-69
2021/11/21 12:19:52;;;;;;;22.38;9.05;;;10.00;99.90;;;;;;5110081;28;20024;-69
2021/11/21 12:22:28;;;;;;;;;;;9.90;99.90;;;;;;5111720;28;20023;-67
2021/11/21 12:27:41;;;;;;;18.83;6.95;;;9.90;99.90;;;;;;5112194;27;20351;-69
2021/11/21 12:30:12;;;;;;;24.83;7.63;;;9.90;99.90;;;;;;5111973;28;20020;-69
2021/11/21 12:32:57;;;;;;;21.85;6.32;;;9.90;99.90;;;;;;5111606;28;20488;-69
2021/11/21 12:35:27;;;;;;;17.05;5.15;;;10.00;99.90;;;;;;5111457;28;20028;-69
2021/11/21 12:37:55;;;;;;;19.65;6.15;;;10.00;99.90;;;;;;5111195;28;20024;-69
2021/11/21 12:40:25;;;;;;;15.93;4.63;;;10.10;99.90;;;;;;5111789;28;20031;-69
2021/11/21 12:43:10;;;;;;;15.77;3.95;;;10.00;99.90;;;;;;5111175;28;20035;-69
2021/11/21 12:45:40;;;;;;;15.95;3.75;;;10.10;99.90;;;;;;5111304;28;20036;-68
2021/11/21 12:48:09;;;;;;;21.55;4.05;;;10.10;99.90;;;;;;5111556;28;20063;-68
2021/11/21 12:50:44;;;;;;;15.45;3.75;;;10.20;99.90;;;;;;5111572;28;20016;-69
2021/11/21 12:53:22;;;;;;;14.90;2.90;;;10.20;99.90;;;;;;5111549;28;20027;-69
2021/11/21 12:55:52;;;;;;;14.85;3.70;;;10.20;99.90;;;;;;5111475;28;20024;-69